Time;durP1;ratioP1;P1;durP2;ratioP2;P2;SDS_P1;SDS_P2;PMS_P1;PMS_P2;Temp;Humidity;BMP_temperature;BMP_pressure;BME280_temperature;BME280_humidity;BME280_pressure;Samples;Min_cycle;Max_cycle;Signal;HPM_P1;HPM_P2
2024/02/13 00:01:23;;;;;;;9.77;4.35;;;;;;;11.23;100.00;98866.59;5000729;28;20038;-63
2024/02/13 00:03:49;;;;;;;9.15;4.13;;;;;;;11.31;100.00;98866.47;4998848;28;20040;-63
2024/02/13 00:06:14;;;;;;;12.65;4.72;;;;;;;11.30;100.00;98864.81;4999540;28;20046;-63
2024/02/13 00:08:41;;;;;;;14.60;4.78;;;;;;;11.47;100.00;98875.03;5001126;28;20101;-62
2024/02/13 00:11:07;;;;;;;10.93;4.55;;;;;;;11.51;100.00;98878.13;5000168;28;20062;-62
2024/02/13 00:13:37;;;;;;;15.07;5.78;;;;;;;11.55;100.00;98867.97;5000587;28;20192;-63
2024/02/13 00:16:03;;;;;;;11.38;4.97;;;;;;;11.51;100.00;98867.53;4999733;28;20035;-62
2024/02/13 00:18:29;;;;;;;10.38;5.10;;;;;;;11.47;100.00;98864.44;4999584;28;20038;-62
2024/02/13 00:20:57;;;;;;;12.45;5.10;;;;;;;11.41;100.00;98861.69;5000183;28;20030;-62
2024/02/13 00:23:22;;;;;;;10.68;5.45;;;;;;;11.21;100.00;98861.47;5000202;28;20038;-63
2024/02/13 00:25:48;;;;;;;16.40;6.47;;;;;;;11.13;100.00;98862.41;4999586;28;20244;-62
2024/02/13 00:28:14;;;;;;;13.88;6.22;;;;;;;11.13;100.00;98865.06;5001118;28;20049;-62
2024/02/13 00:30:40;;;;;;;9.68;6.85;;;;;;;10.96;100.00;98862.81;5000044;28;20344;-62
2024/02/13 00:33:06;;;;;;;11.73;7.85;;;;;;;11.09;100.00;98855.03;4999232;28;20031;-62
2024/02/13 00:35:31;;;;;;;10.20;6.82;;;;;;;11.12;100.00;98866.06;5000479;28;20033;-63
2024/02/13 00:37:57;;;;;;;12.77;6.47;;;;;;;10.92;100.00;98843.00;4999928;28;20026;-63
2024/02/13 00:40:23;;;;;;;12.48;5.40;;;;;;;11.08;100.00;98859.50;4999530;28;20081;-62
2024/02/13 00:42:51;;;;;;;9.88;4.55;;;;;;;11.09;100.00;98860.31;4999183;28;20243;-62
2024/02/13 00:45:16;;;;;;;6.53;4.05;;;;;;;11.01;100.00;98858.59;4999918;28;20034;-63
2024/02/13 00:47:42;;;;;;;6.30;3.90;;;;;;;10.95;100.00;98858.53;4999273;28;20026;-62
2024/02/13 00:50:08;;;;;;;9.35;6.35;;;;;;;11.01;100.00;98857.78;5000041;28;20042;-62
2024/02/13 00:52:39;;;;;;;13.50;5.22;;;;;;;11.02;100.00;98847.00;4999326;28;20354;-62
2024/02/13 00:55:07;;;;;;;7.53;3.50;;;;;;;11.05;100.00;98846.63;4999657;28;20097;-62
2024/02/13 00:57:33;;;;;;;6.78;3.58;;;;;;;11.05;100.00;98845.81;4999630;28;20084;-62
2024/02/13 00:59:59;;;;;;;6.25;3.15;;;;;;;10.95;100.00;98847.94;4999453;28;20316;-62
2024/02/13 01:02:26;;;;;;;7.28;3.00;;;;;;;10.78;100.00;98845.50;4999126;28;20052;-64
2024/02/13 01:04:51;;;;;;;5.80;3.35;;;;;;;10.92;100.00;98841.19;4999684;28;20656;-63
2024/02/13 01:07:17;;;;;;;5.78;2.85;;;;;;;10.88;100.00;98843.38;4999308;28;20050;-62
2024/02/13 01:09:43;;;;;;;6.88;4.07;;;;;;;10.77;100.00;98841.22;4999293;28;20110;-62
2024/02/13 01:12:08;;;;;;;5.80;4.43;;;;;;;10.67;100.00;98851.25;4998049;28;20663;-62
2024/02/13 01:14:34;;;;;;;7.72;3.65;;;;;;;10.60;100.00;98841.59;4999367;28;20038;-62
2024/02/13 01:17:00;;;;;;;10.32;5.95;;;;;;;10.57;100.00;98839.31;4997919;28;20050;-62
2024/02/13 01:19:26;;;;;;;11.40;8.23;;;;;;;10.49;100.00;98845.53;4998031;28;20072;-62
2024/02/13 01:21:52;;;;;;;13.95;8.15;;;;;;;10.48;100.00;98835.94;4998967;28;20026;-63
2024/02/13 01:24:17;;;;;;;9.55;6.10;;;;;;;10.52;100.00;98842.50;4997689;28;20038;-63
2024/02/13 01:26:44;;;;;;;9.73;6.00;;;;;;;10.57;100.00;98837.50;4999345;28;20223;-62
2024/02/13 01:29:11;;;;;;;8.27;4.28;;;;;;;10.59;100.00;98842.59;4997965;28;20116;-62
2024/02/13 01:31:38;;;;;;;6.68;3.97;;;;;;;10.57;100.00;98836.66;4998074;28;20351;-63
2024/02/13 01:34:03;;;;;;;7.38;4.07;;;;;;;10.51;100.00;98835.59;4999657;28;20034;-63
2024/02/13 01:36:29;;;;;;;6.13;3.63;;;;;;;10.37;100.00;98847.78;4998322;28;20073;-64
2024/02/13 01:38:58;;;;;;;7.95;3.40;;;;;;;10.28;100.00;98842.75;4998872;28;20046;-62
2024/02/13 01:41:24;;;;;;;6.38;3.35;;;;;;;10.18;100.00;98838.53;4998581;28;20096;-62
2024/02/13 01:43:50;;;;;;;6.55;4.18;;;;;;;10.13;100.00;98843.53;4997479;28;20045;-62
2024/02/13 01:46:16;;;;;;;4.45;3.00;;;;;;;10.16;100.00;98845.00;4998781;28;20054;-61
2024/02/13 01:48:42;;;;;;;5.32;3.03;;;;;;;10.13;100.00;98846.19;4998508;28;20069;-62
2024/02/13 01:51:11;;;;;;;10.98;3.42;;;;;;;10.02;100.00;98840.53;4998235;28;20034;-62
2024/02/13 01:53:38;;;;;;;5.00;3.10;;;;;;;9.99;100.00;98847.00;4998535;28;20109;-62
2024/02/13 01:56:06;;;;;;;5.25;2.28;;;;;;;9.88;100.00;98848.25;4998990;28;20049;-62
2024/02/13 01:58:32;;;;;;;11.98;3.65;;;;;;;9.93;100.00;98845.88;4999441;28;20042;-61
2024/02/13 02:01:01;;;;;;;7.07;2.75;;;;;;;10.01;100.00;98842.34;4997837;28;20116;-63
2024/02/13 02:03:36;;;;;;;7.43;2.42;;;;;;;10.04;100.00;98849.09;4998583;28;20065;-62
2024/02/13 02:06:05;;;;;;;6.50;2.75;;;;;;;10.10;100.00;98848.38;4996812;28;20030;-62
2024/02/13 02:08:31;;;;;;;4.13;2.70;;;;;;;10.12;100.00;98841.06;4998809;28;20038;-62
2024/02/13 02:10:57;;;;;;;4.78;3.20;;;;;;;10.20;100.00;98854.25;4998143;28;20070;-62
2024/02/13 02:13:27;;;;;;;6.10;3.00;;;;;;;10.22;100.00;98847.78;4998699;28;20390;-62
2024/02/13 02:15:54;;;;;;;7.00;2.47;;;;;;;10.32;100.00;98852.81;4996925;28;20085;-63
2024/02/13 02:18:20;;;;;;;5.68;3.10;;;;;;;10.05;100.00;98856.84;4997325;28;20030;-62
2024/02/13 02:20:47;;;;;;;12.55;4.53;;;;;;;10.05;100.00;98861.31;4996576;28;20282;-62
2024/02/13 02:23:13;;;;;;;11.13;4.38;;;;;;;10.23;100.00;98865.28;4998574;28;20038;-62
2024/02/13 02:25:38;;;;;;;12.43;4.43;;;;;;;10.19;100.00;98866.63;4997373;28;20045;-61
2024/02/13 02:28:04;;;;;;;10.13;3.25;;;;;;;10.12;100.00;98867.53;4997322;28;20098;-62
2024/02/13 02:30:30;;;;;;;6.05;2.53;;;;;;;10.07;100.00;98861.97;4996994;28;20215;-63
2024/02/13 02:32:55;;;;;;;7.40;4.30;;;;;;;9.92;100.00;98872.50;4998710;28;20035;-63
2024/02/13 02:35:21;;;;;;;9.65;3.97;;;;;;;10.01;100.00;98860.03;4997723;28;20165;-62
2024/02/13 02:37:50;;;;;;;11.68;4.53;;;;;;;10.11;100.00;98881.75;4998297;28;20030;-62
2024/02/13 02:40:19;;;;;;;11.13;3.72;;;;;;;10.16;100.00;98879.41;4996250;28;20220;-63
2024/02/13 02:42:49;;;;;;;14.95;5.70;;;;;;;10.20;100.00;98881.53;4994739;28;20100;-62
2024/02/13 02:45:18;;;;;;;7.18;3.10;;;;;;;10.10;100.00;98891.50;4997923;28;20057;-62
2024/02/13 02:47:46;;;;;;;6.00;2.85;;;;;;;10.01;100.00;98889.13;4997667;28;20038;-62
2024/02/13 02:50:12;;;;;;;11.93;4.78;;;;;;;10.18;100.00;98888.78;4997592;28;20031;-62
2024/02/13 02:52:38;;;;;;;8.68;3.40;;;;;;;9.95;100.00;98898.59;4998389;28;20038;-62
2024/02/13 02:55:07;;;;;;;9.35;4.32;;;;;;;10.02;100.00;98886.31;4998672;28;20105;-63
2024/02/13 02:57:34;;;;;;;10.25;4.60;;;;;;;10.10;100.00;98885.41;4996726;28;20026;-63
2024/02/13 03:00:10;;;;;;;9.88;3.88;;;;;;;10.04;100.00;98886.94;4998632;28;20068;-62
2024/02/13 03:02:37;;;;;;;8.23;2.70;;;;;;;9.54;100.00;98888.34;4996693;28;20034;-62
2024/02/13 03:05:03;;;;;;;5.10;2.70;;;;;;;9.62;100.00;98884.81;4998659;28;20042;-61
2024/02/13 03:07:30;;;;;;;9.15;3.50;;;;;;;9.73;100.00;98891.50;4997017;28;20038;-63
2024/02/13 03:09:55;;;;;;;8.30;3.22;;;;;;;9.69;100.00;98892.88;4998689;28;20101;-62
2024/02/13 03:12:21;;;;;;;5.80;3.38;;;;;;;9.86;100.00;98894.38;4996511;28;20342;-62
2024/02/13 03:14:50;;;;;;;5.18;3.00;;;;;;;9.82;100.00;98895.72;4997622;28;20042;-62
2024/02/13 03:17:17;;;;;;;8.32;3.58;;;;;;;9.85;100.00;98903.31;4996647;28;20033;-62
2024/02/13 03:19:42;;;;;;;24.63;7.55;;;;;;;9.98;100.00;98898.25;4997712;28;20053;-62
2024/02/13 03:22:08;;;;;;;23.95;7.78;;;;;;;10.12;100.00;98902.75;4997656;28;20034;-62
2024/02/13 03:24:34;;;;;;;5.47;3.13;;;;;;;10.27;100.00;98913.38;4997341;28;20326;-62
2024/02/13 03:27:00;;;;;;;6.60;3.20;;;;;;;10.38;100.00;98915.59;4997169;28;20050;-62
2024/02/13 03:29:27;;;;;;;15.80;5.90;;;;;;;10.39;100.00;98913.75;4997706;28;20096;-64
2024/02/13 03:31:53;;;;;;;17.08;4.78;;;;;;;10.19;100.00;98911.59;4997450;28;20064;-63
2024/02/13 03:34:18;;;;;;;9.25;4.70;;;;;;;10.18;100.00;98906.50;4997334;28;20165;-62
2024/02/13 03:36:44;;;;;;;16.33;6.95;;;;;;;10.27;100.00;98917.84;4997146;28;20217;-62
2024/02/13 03:39:09;;;;;;;35.85;13.23;;;;;;;10.26;100.00;98922.31;4999963;28;20069;-62
2024/02/13 03:41:42;;;;;;;20.65;8.10;;;;;;;10.11;100.00;98910.84;4999908;28;20161;-62
2024/02/13 03:44:11;;;;;;;18.23;6.97;;;;;;;10.15;100.00;98912.13;5000445;28;20280;-62
2024/02/13 03:46:37;;;;;;;16.65;6.20;;;;;;;10.17;100.00;98912.78;5001365;28;20034;-62
2024/02/13 03:49:03;;;;;;;15.15;5.93;;;;;;;9.89;100.00;98918.66;5000285;28;20038;-62
2024/02/13 03:51:29;;;;;;;7.10;3.85;;;;;;;9.93;100.00;98916.47;5001118;28;20427;-62
2024/02/13 03:53:54;;;;;;;8.77;5.03;;;;;;;9.94;100.00;98920.75;5000114;28;20093;-63
2024/02/13 03:56:20;;;;;;;8.55;4.10;;;;;;;10.05;100.00;98912.41;5001211;28;20088;-62
2024/02/13 03:58:45;;;;;;;4.57;2.67;;;;;;;9.84;100.00;98910.41;5000293;28;20252;-62
2024/02/13 04:01:11;;;;;;;6.00;3.00;;;;;;;9.87;100.00;98917.19;5000509;28;20054;-62
2024/02/13 04:03:37;;;;;;;4.65;2.58;;;;;;;9.93;100.00;98906.72;4999758;28;20045;-64
2024/02/13 04:06:08;;;;;;;7.95;2.80;;;;;;;9.84;100.00;98910.41;5000927;28;20041;-64
2024/02/13 04:08:34;;;;;;;5.50;2.47;;;;;;;9.79;100.00;98906.66;4999957;28;20033;-63
2024/02/13 04:11:02;;;;;;;5.70;3.00;;;;;;;9.94;100.00;98918.09;5000855;28;20256;-62
2024/02/13 04:13:28;;;;;;;7.43;3.88;;;;;;;9.90;100.00;98925.56;5000470;28;20042;-62
2024/02/13 04:15:53;;;;;;;8.50;4.50;;;;;;;9.87;100.00;98918.00;4999690;28;20061;-62
2024/02/13 04:18:19;;;;;;;8.95;4.28;;;;;;;10.02;100.00;98919.88;4999551;28;20046;-62
2024/02/13 04:20:45;;;;;;;9.07;3.30;;;;;;;10.06;100.00;98918.50;5000476;28;20038;-62
2024/02/13 04:23:10;;;;;;;8.13;3.47;;;;;;;10.17;100.00;98918.06;5000756;28;20056;-62
2024/02/13 04:25:36;;;;;;;5.95;3.42;;;;;;;10.31;100.00;98925.25;4999776;28;20046;-64
2024/02/13 04:28:03;;;;;;;7.82;3.92;;;;;;;10.25;100.00;98923.31;5000471;28;20149;-63
2024/02/13 04:30:28;;;;;;;10.05;4.68;;;;;;;10.19;100.00;98916.06;4999376;28;20030;-61
2024/02/13 04:32:54;;;;;;;6.25;3.65;;;;;;;10.32;100.00;98923.41;5000163;28;20057;-62
2024/02/13 04:35:19;;;;;;;5.78;3.47;;;;;;;10.39;100.00;98924.34;4998412;28;20057;-62
2024/02/13 04:37:45;;;;;;;11.02;5.05;;;;;;;10.42;100.00;98929.31;5000640;28;20046;-63
2024/02/13 04:40:11;;;;;;;10.13;4.40;;;;;;;10.48;100.00;98923.28;4999025;28;20113;-62
2024/02/13 04:42:37;;;;;;;9.38;5.07;;;;;;;10.52;100.00;98928.03;4999166;28;20034;-62
2024/02/13 04:45:04;;;;;;;10.40;6.60;;;;;;;10.54;99.75;98933.97;4997991;28;20042;-63
2024/02/13 04:47:30;;;;;;;11.70;7.60;;;;;;;10.54;100.00;98926.03;4999985;28;20038;-60
2024/02/13 04:49:58;;;;;;;10.98;5.28;;;;;;;10.48;100.00;98925.94;4999058;28;20062;-62
2024/02/13 04:52:24;;;;;;;9.02;4.60;;;;;;;10.47;99.98;98927.75;4999809;28;20042;-62
2024/02/13 04:54:53;;;;;;;10.60;4.72;;;;;;;10.45;100.00;98929.75;4998978;28;20041;-61
2024/02/13 04:57:19;;;;;;;8.40;3.92;;;;;;;10.38;99.88;98936.75;4998703;28;20049;-63
2024/02/13 04:59:48;;;;;;;9.57;4.38;;;;;;;10.26;100.00;98935.53;4998919;28;20343;-62
2024/02/13 05:02:24;;;;;;;9.07;4.72;;;;;;;10.29;100.00;98937.00;4999459;28;20225;-61
2024/02/13 05:07:35;;;;;;;10.98;5.35;;;;;;;10.37;99.62;98936.94;4997653;28;20045;-62
2024/02/13 05:10:02;;;;;;;10.30;4.85;;;;;;;10.33;99.85;98943.59;4997937;28;20042;-62
2024/02/13 05:12:28;;;;;;;9.35;4.78;;;;;;;10.34;100.00;98940.75;4997960;28;20080;-63
2024/02/13 05:14:54;;;;;;;13.60;4.90;;;;;;;10.40;100.00;98945.38;4997939;28;20043;-62
2024/02/13 05:17:23;;;;;;;8.18;4.53;;;;;;;10.40;100.00;98949.81;4998582;28;20045;-62
2024/02/13 05:19:49;;;;;;;9.70;4.20;;;;;;;10.42;100.00;98958.41;4997936;28;20045;-61
2024/02/13 05:22:16;;;;;;;7.03;4.32;;;;;;;10.54;99.64;98956.97;4999682;28;20042;-62
2024/02/13 05:24:41;;;;;;;12.10;4.80;;;;;;;10.61;99.41;98963.19;4998495;28;20063;-62
2024/02/13 05:27:08;;;;;;;13.85;4.43;;;;;;;10.62;98.94;98959.53;4999313;28;20332;-63
2024/02/13 05:29:41;;;;;;;8.82;3.97;;;;;;;10.64;99.01;98962.00;4998826;28;20260;-62
2024/02/13 05:32:07;;;;;;;8.27;4.18;;;;;;;10.67;98.91;98975.69;4998489;28;20448;-62
2024/02/13 05:34:33;;;;;;;7.28;4.03;;;;;;;10.66;99.22;98973.22;4999194;28;20063;-62
2024/02/13 05:36:59;;;;;;;8.18;3.83;;;;;;;10.49;99.51;98969.94;4998817;28;20069;-62
2024/02/13 05:39:25;;;;;;;9.35;4.30;;;;;;;10.32;100.00;98974.53;4999050;28;20050;-62
2024/02/13 05:41:51;;;;;;;6.65;4.45;;;;;;;10.48;99.53;98974.41;4998801;28;20062;-62
2024/02/13 05:44:17;;;;;;;8.73;4.93;;;;;;;10.55;98.86;98980.63;4999091;28;20189;-61
2024/02/13 05:46:42;;;;;;;8.23;5.10;;;;;;;10.59;98.75;98977.59;4997927;28;20045;-63
2024/02/13 05:49:08;;;;;;;7.13;4.32;;;;;;;10.53;99.58;98985.28;4999157;28;20404;-62
2024/02/13 05:51:34;;;;;;;7.78;4.68;;;;;;;10.49;99.60;98981.34;4997616;28;20041;-62
2024/02/13 05:54:04;;;;;;;10.35;4.75;;;;;;;10.51;99.39;98983.81;4998545;28;20057;-62
2024/02/13 05:56:31;;;;;;;9.07;4.88;;;;;;;10.53;99.34;98995.84;4997022;28;20034;-61
2024/02/13 05:58:57;;;;;;;9.13;4.43;;;;;;;10.55;99.40;98990.38;5017518;28;20803;-63
2024/02/13 06:01:24;;;;;;;7.28;5.20;;;;;;;10.42;99.41;99001.59;5004012;28;20041;-63
2024/02/13 06:03:54;;;;;;;6.85;4.38;;;;;;;10.42;100.00;99006.06;4997695;28;20346;-62
2024/02/13 06:06:20;;;;;;;6.05;4.22;;;;;;;10.39;100.00;99006.38;4997926;28;20038;-62
2024/02/13 06:08:46;;;;;;;7.82;4.68;;;;;;;10.48;100.00;99008.81;4998296;28;20092;-61
2024/02/13 06:11:12;;;;;;;10.38;4.88;;;;;;;10.67;99.53;99010.13;4998182;28;20053;-61
2024/02/13 06:13:41;;;;;;;8.88;4.88;;;;;;;10.76;99.10;99010.88;4997400;28;20065;-61
2024/02/13 06:16:07;;;;;;;5.90;4.18;;;;;;;10.84;98.57;99013.44;4998281;28;20114;-62
2024/02/13 06:18:33;;;;;;;7.00;4.40;;;;;;;10.84;99.04;99021.38;4998809;28;20602;-61
2024/02/13 06:20:58;;;;;;;6.22;4.13;;;;;;;10.87;98.96;99015.72;4997786;28;20049;-63
2024/02/13 06:23:24;;;;;;;6.20;4.00;;;;;;;10.91;98.94;99016.16;4997555;28;20342;-61
2024/02/13 06:25:49;;;;;;;5.25;3.40;;;;;;;10.93;98.10;99020.28;4997012;28;20109;-61
2024/02/13 06:28:16;;;;;;;8.00;3.60;;;;;;;11.05;98.23;99020.66;4999222;28;20378;-62
2024/02/13 06:30:43;;;;;;;7.15;3.72;;;;;;;11.10;98.12;99027.06;4997827;28;20030;-63
2024/02/13 06:33:09;;;;;;;5.63;3.53;;;;;;;11.19;97.67;99020.66;4997931;28;20109;-63
2024/02/13 06:35:35;;;;;;;5.22;3.55;;;;;;;11.33;98.01;99026.13;4998521;28;20034;-62
2024/02/13 06:38:01;;;;;;;4.53;2.60;;;;;;;11.46;96.66;99031.63;4996866;28;20231;-62
2024/02/13 06:40:26;;;;;;;4.53;3.00;;;;;;;11.67;96.28;99036.16;4996970;28;20350;-61
2024/02/13 06:42:52;;;;;;;8.45;4.28;;;;;;;11.73;95.62;99024.81;4997031;28;20038;-62
2024/02/13 06:45:17;;;;;;;8.13;3.45;;;;;;;11.76;95.61;99027.09;4997536;28;20038;-62
2024/02/13 06:47:43;;;;;;;6.68;2.92;;;;;;;11.68;93.81;99021.88;4997063;28;20038;-61
2024/02/13 06:50:11;;;;;;;5.68;3.05;;;;;;;11.68;93.92;99029.84;4998303;28;20042;-62
2024/02/13 06:52:41;;;;;;;6.05;3.00;;;;;;;11.59;94.17;99023.84;4996382;28;20228;-62
2024/02/13 06:55:10;;;;;;;5.25;3.22;;;;;;;11.71;94.18;99035.59;4998276;28;20433;-61
2024/02/13 06:57:36;;;;;;;6.30;3.67;;;;;;;11.75;93.91;99030.75;4998264;28;20080;-62
2024/02/13 07:00:13;;;;;;;5.20;3.17;;;;;;;11.70;93.75;99033.13;4997251;28;20050;-62
2024/02/13 07:02:40;;;;;;;4.85;3.17;;;;;;;11.66;94.27;99042.47;4997506;28;20085;-63
2024/02/13 07:05:06;;;;;;;6.90;3.40;;;;;;;11.67;94.18;99039.63;4998149;28;20069;-61
2024/02/13 07:07:31;;;;;;;2.92;2.53;;;;;;;11.59;92.33;99047.69;4997921;28;20054;-62
2024/02/13 07:09:57;;;;;;;6.57;3.88;;;;;;;11.57;93.77;99043.59;4997992;28;20213;-62
2024/02/13 07:12:22;;;;;;;3.45;3.15;;;;;;;11.55;93.40;99054.38;4995904;28;20332;-63
2024/02/13 07:14:50;;;;;;;5.03;2.90;;;;;;;11.54;93.14;99049.25;4999154;28;20042;-61
2024/02/13 07:17:16;;;;;;;5.30;3.13;;;;;;;11.65;93.88;99046.94;4999885;28;20070;-61
2024/02/13 07:19:42;;;;;;;4.47;3.38;;;;;;;11.60;92.49;99053.81;5000932;28;20034;-62
2024/02/13 07:22:07;;;;;;;4.30;2.50;;;;;;;11.57;91.73;99051.53;5000435;28;20342;-61
2024/02/13 07:24:36;;;;;;;5.55;3.20;;;;;;;11.60;91.65;99054.63;4998714;28;20100;-61
2024/02/13 07:27:04;;;;;;;5.35;3.33;;;;;;;11.58;91.75;99054.00;5000361;28;20100;-62
2024/02/13 07:29:30;;;;;;;3.78;2.88;;;;;;;11.57;91.17;99051.53;4999262;28;20077;-61
2024/02/13 07:31:56;;;;;;;5.13;3.38;;;;;;;11.60;92.46;99062.59;5000801;28;20026;-62
2024/02/13 07:34:22;;;;;;;5.55;3.10;;;;;;;11.59;92.01;99060.94;4999044;28;20080;-63
2024/02/13 07:36:47;;;;;;;3.72;2.78;;;;;;;11.61;92.17;99058.13;4999947;28;20037;-61
2024/02/13 07:39:13;;;;;;;4.65;2.55;;;;;;;11.65;90.52;99064.69;4998446;28;20046;-61
2024/02/13 07:41:39;;;;;;;6.40;3.08;;;;;;;11.69;90.34;99068.63;5000049;28;20038;-61
2024/02/13 07:44:04;;;;;;;3.35;2.45;;;;;;;11.67;89.49;99068.81;4998651;28;20031;-61
2024/02/13 07:46:30;;;;;;;5.20;3.00;;;;;;;11.72;89.59;99073.56;4999188;28;20048;-61
2024/02/13 07:48:55;;;;;;;4.55;3.17;;;;;;;11.73;88.58;99073.38;4999231;28;20109;-61
2024/02/13 07:51:21;;;;;;;3.90;2.63;;;;;;;11.81;89.33;99070.63;4999060;28;20097;-63
2024/02/13 07:53:47;;;;;;;3.88;2.15;;;;;;;11.71;88.82;99080.69;4998613;28;20061;-61
2024/02/13 07:56:13;;;;;;;3.53;2.38;;;;;;;11.87;88.48;99082.34;4999319;28;20042;-61
2024/02/13 07:58:39;;;;;;;5.35;2.63;;;;;;;12.02;88.17;99084.94;4999484;28;20042;-62
2024/02/13 08:01:05;;;;;;;3.70;2.92;;;;;;;12.08;86.96;99082.38;4999162;28;20030;-61
2024/02/13 08:03:34;;;;;;;3.47;3.17;;;;;;;12.13;85.86;99077.31;4999620;28;20042;-62
2024/02/13 08:06:01;;;;;;;6.00;2.78;;;;;;;12.19;85.63;99085.53;4998900;28;20335;-61
2024/02/13 08:08:28;;;;;;;3.60;2.28;;;;;;;12.27;86.72;99080.94;4998514;28;20337;-61
2024/02/13 08:10:54;;;;;;;3.92;2.17;;;;;;;12.32;86.14;99075.88;4996859;28;20034;-63
2024/02/13 08:13:20;;;;;;;3.72;2.63;;;;;;;12.24;85.93;99072.53;4998689;28;20058;-61
2024/02/13 08:15:47;;;;;;;4.03;2.28;;;;;;;12.36;85.48;99076.31;4997133;28;20047;-61
2024/02/13 08:18:14;;;;;;;5.55;2.40;;;;;;;12.41;84.50;99082.69;4998529;28;20359;-61
2024/02/13 08:20:40;;;;;;;2.20;1.92;;;;;;;12.37;83.38;99084.09;4997553;28;20026;-62
2024/02/13 08:23:06;;;;;;;3.42;2.13;;;;;;;12.44;82.37;99081.50;4998769;28;20034;-62
2024/02/13 08:25:31;;;;;;;5.25;2.70;;;;;;;12.56;83.07;99071.22;4997173;28;20046;-62
2024/02/13 08:27:58;;;;;;;3.65;2.00;;;;;;;12.59;82.13;99076.16;4999096;28;20037;-62
2024/02/13 08:30:24;;;;;;;4.28;2.40;;;;;;;12.78;83.20;99073.66;4997704;28;20429;-62
2024/02/13 08:32:50;;;;;;;3.58;2.53;;;;;;;12.95;81.63;99076.03;4998293;28;20034;-62
2024/02/13 08:35:18;;;;;;;5.07;2.92;;;;;;;13.08;81.41;99071.63;4997367;28;20218;-63
2024/02/13 08:37:44;;;;;;;3.95;2.03;;;;;;;13.37;80.84;99075.09;4997726;28;20312;-64
2024/02/13 08:40:15;;;;;;;2.38;1.60;;;;;;;13.47;79.42;99056.94;4997401;28;20055;-63
2024/02/13 08:42:41;;;;;;;2.72;2.05;;;;;;;13.72;78.99;99071.41;5017255;28;20029;-62
2024/02/13 08:45:07;;;;;;;1.60;1.50;;;;;;;13.84;76.73;99076.97;5002520;28;20093;-62
2024/02/13 08:47:32;;;;;;;1.60;1.50;;;;;;;13.67;75.41;99065.03;4998336;28;20227;-62
2024/02/13 08:49:58;;;;;;;2.15;1.88;;;;;;;13.79;74.88;99059.97;4997641;28;20038;-63
2024/02/13 08:52:24;;;;;;;5.18;1.70;;;;;;;13.84;73.96;99054.88;4998301;28;20085;-63
2024/02/13 08:54:49;;;;;;;1.42;1.27;;;;;;;13.92;73.85;99074.16;4997708;28;20041;-62
2024/02/13 08:57:15;;;;;;;1.48;1.20;;;;;;;14.00;72.36;99059.84;4998543;28;20037;-64
2024/02/13 08:59:46;;;;;;;1.88;1.38;;;;;;;14.03;73.16;99070.09;4997348;28;20038;-64
2024/02/13 09:02:12;;;;;;;1.63;1.50;;;;;;;14.08;71.92;99072.97;4997700;28;20038;-63
2024/02/13 09:04:38;;;;;;;1.65;1.52;;;;;;;14.21;73.12;99075.66;4996995;28;21946;-63
2024/02/13 09:07:04;;;;;;;2.72;1.30;;;;;;;14.19;71.68;99063.56;4997477;28;20038;-63
2024/02/13 09:09:32;;;;;;;1.50;1.35;;;;;;;14.30;71.07;99069.13;4996364;28;20058;-61
2024/02/13 09:12:02;;;;;;;1.80;1.70;;;;;;;14.32;72.13;99075.06;4996335;28;20038;-61
2024/02/13 09:14:31;;;;;;;4.22;2.10;;;;;;;14.44;71.35;99064.66;4995980;28;20354;-61
2024/02/13 09:16:59;;;;;;;1.50;1.40;;;;;;;14.35;70.61;99071.19;4997084;28;20367;-61
2024/02/13 09:19:25;;;;;;;3.03;1.60;;;;;;;14.45;69.54;99058.31;4997828;28;20080;-61
2024/02/13 09:21:51;;;;;;;1.70;1.60;;;;;;;14.51;71.26;99062.81;4997083;28;20042;-63
2024/02/13 09:24:17;;;;;;;1.60;1.50;;;;;;;14.51;70.75;99057.50;4998392;28;20230;-61
2024/02/13 09:26:42;;;;;;;1.60;1.50;;;;;;;14.50;69.25;99058.53;4997471;28;20240;-61
2024/02/13 09:29:08;;;;;;;1.45;1.35;;;;;;;14.47;68.58;99053.59;4998134;28;20066;-61
2024/02/13 09:31:34;;;;;;;2.33;1.67;;;;;;;14.54;68.93;99059.75;4996062;28;20038;-61
2024/02/13 09:33:59;;;;;;;4.25;1.58;;;;;;;14.57;68.78;99064.72;4997822;28;20240;-61
2024/02/13 09:36:25;;;;;;;6.28;1.92;;;;;;;14.48;68.04;99059.75;4995210;28;20220;-61
2024/02/13 09:38:51;;;;;;;1.95;1.80;;;;;;;14.42;68.27;99055.22;4996728;28;20037;-61
2024/02/13 09:41:17;;;;;;;1.70;1.50;;;;;;;14.46;68.53;99053.81;4996755;28;20185;-60
2024/02/13 09:43:45;;;;;;;2.05;1.40;;;;;;;14.48;68.91;99057.09;4995896;28;20084;-61
2024/02/13 09:46:14;;;;;;;1.52;1.42;;;;;;;14.47;67.85;99042.94;4997193;28;20034;-61
2024/02/13 09:48:45;;;;;;;2.15;1.13;;;;;;;14.57;68.28;99048.72;4996005;28;20034;-61
2024/02/13 09:51:17;;;;;;;3.08;1.60;;;;;;;14.65;68.21;99053.03;4997024;28;20057;-61
2024/02/13 09:53:45;;;;;;;2.17;1.42;;;;;;;14.65;68.04;99042.38;4996957;28;20050;-62
2024/02/13 09:56:14;;;;;;;3.58;1.80;;;;;;;14.64;67.82;99046.88;4996932;28;20105;-62
2024/02/13 09:58:41;;;;;;;1.83;1.50;;;;;;;14.71;67.72;99040.72;4997836;28;20117;-61
2024/02/13 10:01:07;;;;;;;1.65;1.50;;;;;;;14.79;67.25;99041.34;4997123;28;20351;-61
2024/02/13 10:03:36;;;;;;;1.48;1.38;;;;;;;14.75;66.53;99039.28;4996265;28;20061;-61
2024/02/13 10:06:03;;;;;;;3.15;1.48;;;;;;;14.76;65.30;99030.28;4997352;28;20042;-60
2024/02/13 10:08:30;;;;;;;2.25;1.30;;;;;;;14.79;65.15;99027.19;4996853;28;20061;-61
2024/02/13 10:11:04;;;;;;;1.50;1.40;;;;;;;14.92;65.91;99032.50;4996846;28;20037;-60
2024/02/13 10:13:40;;;;;;;1.90;1.50;;;;;;;14.95;66.68;99024.91;4995566;28;20030;-61
2024/02/13 10:16:20;;;;;;;1.50;1.40;;;;;;;15.04;62.97;99019.38;4996568;28;20058;-61
2024/02/13 10:19:01;;;;;;;1.77;1.23;;;;;;;15.03;62.54;99026.53;4995742;28;20042;-64
2024/02/13 10:21:29;;;;;;;1.73;1.52;;;;;;;15.10;62.71;99031.88;4995784;28;20038;-61
2024/02/13 10:24:12;;;;;;;2.67;1.35;;;;;;;15.15;62.47;99024.06;4995700;28;20042;-61
2024/02/13 10:26:38;;;;;;;2.60;1.80;;;;;;;15.19;63.02;99025.28;4996540;28;20336;-63
2024/02/13 10:29:04;;;;;;;1.80;1.70;;;;;;;15.10;63.06;99023.88;4995822;28;20034;-63
2024/02/13 10:31:34;;;;;;;1.70;1.60;;;;;;;15.06;63.46;99012.78;4996830;28;20034;-61
2024/02/13 10:34:03;;;;;;;1.98;1.83;;;;;;;15.15;64.17;99013.38;4995537;28;20324;-61
2024/02/13 10:36:32;;;;;;;2.33;1.80;;;;;;;15.20;63.82;99018.91;4996454;28;20350;-61
2024/02/13 10:39:03;;;;;;;1.75;1.65;;;;;;;15.07;63.16;99019.75;4995291;28;20046;-61
2024/02/13 10:41:33;;;;;;;1.90;1.80;;;;;;;15.07;64.01;99019.75;4996579;28;20397;-62
2024/02/13 10:43:58;;;;;;;1.50;1.40;;;;;;;15.07;63.30;99006.44;4996004;28;20049;-61
2024/02/13 10:46:28;;;;;;;1.85;1.38;;;;;;;15.04;62.48;99017.53;4996458;28;20223;-61
2024/02/13 10:49:08;;;;;;;1.75;1.30;;;;;;;15.04;62.49;99012.19;4998146;28;20347;-61
2024/02/13 10:51:37;;;;;;;3.35;1.30;;;;;;;15.24;64.27;99004.94;5000759;28;20193;-61
2024/02/13 10:54:07;;;;;;;3.20;1.00;;;;;;;15.23;61.48;99010.50;5000357;28;20049;-61
2024/02/13 10:56:37;;;;;;;1.20;1.10;;;;;;;15.30;60.73;99021.97;5000610;28;20184;-61
2024/02/13 10:59:03;;;;;;;1.05;1.05;;;;;;;15.24;59.33;99007.63;4999664;28;20030;-63
2024/02/13 11:01:38;;;;;;;2.03;0.90;;;;;;;15.31;59.72;99016.41;5000822;28;20374;-62
2024/02/13 11:04:03;;;;;;;1.20;1.10;;;;;;;15.30;57.31;99012.13;4999435;28;20093;-62
2024/02/13 11:06:30;;;;;;;1.40;1.10;;;;;;;15.29;56.92;99007.00;4999756;28;20042;-62
2024/02/13 11:08:57;;;;;;;0.80;0.80;;;;;;;15.33;56.16;99019.69;5000238;28;20040;-61
2024/02/13 11:11:25;;;;;;;1.02;1.02;;;;;;;15.20;57.05;99006.41;4998775;28;20034;-62
2024/02/13 11:13:51;;;;;;;1.38;1.30;;;;;;;15.25;57.79;99008.44;4999143;28;20042;-61
2024/02/13 11:16:20;;;;;;;1.20;1.20;;;;;;;15.21;56.53;99010.69;5000554;28;20113;-61
2024/02/13 11:18:50;;;;;;;1.15;1.10;;;;;;;15.23;57.45;98999.81;4999632;28;20043;-61
2024/02/13 11:21:24;;;;;;;1.50;1.40;;;;;;;15.27;57.58;98998.38;5000159;28;20220;-62
2024/02/13 11:24:00;;;;;;;1.50;1.23;;;;;;;15.26;56.70;98994.06;5019960;28;20046;-62
2024/02/13 11:26:34;;;;;;;1.60;1.35;;;;;;;15.13;56.94;98988.78;4999973;28;20105;-61
2024/02/13 11:29:13;;;;;;;;;;;;;;;15.16;57.46;98994.50;4999359;28;20295;-61
2024/02/13 11:31:39;;;;;;;1.30;1.20;;;;;;;15.17;57.43;98984.66;5000189;28;19921;-63